Etusivu
METAR-TAF:

METAR-TAF

Lentoasemat :

Clinton Municipal Airport

Clinton, Iowa, Yhdysvallat

Leveyspiiri: 41-50N, Pituuspiiri: 090-20W, korkeus merenpinnasta: 216 m

Tämänhetkinen sää

Tämä raportti tehtiin 59 minuuttia sitten, kello 12.56 UTC
Tuuli 6 kn lännestä/luoteesta
Lämpötila 6°C
Kosteus 100%
Ilmanpaine 1014 hPa
Näkyvyys: 16.1 km
Hajonneita pilviä 300 ft:n korkeudessa

METAR: KCWI 291256Z AUTO 29006KT 10SM BKN003 06/06 A2994 RMK AO2 SLP144 T00560056

Aika: 08:55 (13:55 UTC)


TAF: puuttuu

Säähavainnot ja -ennusteet yli 4000 lentoasemalta (METAR- ja TAF-raportit).

Käytössä olevat sääasemat on merkitty karttaan keltaisilla ja punaisilla pisteillä.

Aseta hiiri pisteen päälle nähdäksesi sääaseman nimen.

Klikkaa sitten nähdäksesi säähavainnot ja -ennusteet.

Kartan vaihtaminen: klikkaa mustalla rastilla varustettuja vihreitä pisteitä, niin voit zoomata sisään; viivalla varustettua vihreää pistettä, niin voit zoomata ulos tai vihreitä nuolia, niin pääset viereisille kartoille.


METAR-TAF: